sensor_id;sensor_type;location;lat;lon;timestamp;P1;durP1;ratioP1;P2;durP2;ratioP2
35634;SDS011;21757;43.610;1.440;2023-02-15T00:00:11;13.45;;;7.60;;
35634;SDS011;21757;43.610;1.440;2023-02-15T00:02:37;14.07;;;8.18;;
35634;SDS011;21757;43.610;1.440;2023-02-15T00:05:03;13.93;;;7.80;;
35634;SDS011;21757;43.610;1.440;2023-02-15T00:07:29;12.98;;;8.00;;
35634;SDS011;21757;43.610;1.440;2023-02-15T00:09:54;12.30;;;7.45;;
35634;SDS011;21757;43.610;1.440;2023-02-15T00:12:20;16.63;;;7.80;;
35634;SDS011;21757;43.610;1.440;2023-02-15T00:14:46;13.80;;;7.72;;
35634;SDS011;21757;43.610;1.440;2023-02-15T00:17:12;15.35;;;7.70;;
35634;SDS011;21757;43.610;1.440;2023-02-15T00:19:38;15.32;;;7.45;;
35634;SDS011;21757;43.610;1.440;2023-02-15T00:22:05;15.85;;;8.05;;
35634;SDS011;21757;43.610;1.440;2023-02-15T00:24:31;16.15;;;7.82;;
35634;SDS011;21757;43.610;1.440;2023-02-15T00:26:57;18.48;;;8.32;;
35634;SDS011;21757;43.610;1.440;2023-02-15T00:29:22;21.55;;;9.70;;
35634;SDS011;21757;43.610;1.440;2023-02-15T00:31:49;18.75;;;7.95;;
35634;SDS011;21757;43.610;1.440;2023-02-15T00:34:19;17.75;;;8.43;;
35634;SDS011;21757;43.610;1.440;2023-02-15T00:36:46;10.30;;;7.20;;
35634;SDS011;21757;43.610;1.440;2023-02-15T00:39:12;17.88;;;7.60;;
35634;SDS011;21757;43.610;1.440;2023-02-15T00:41:39;13.68;;;8.02;;
35634;SDS011;21757;43.610;1.440;2023-02-15T00:44:05;13.27;;;7.55;;
35634;SDS011;21757;43.610;1.440;2023-02-15T00:46:31;15.50;;;8.52;;
35634;SDS011;21757;43.610;1.440;2023-02-15T00:48:57;11.18;;;7.55;;
35634;SDS011;21757;43.610;1.440;2023-02-15T00:51:23;16.30;;;7.70;;
35634;SDS011;21757;43.610;1.440;2023-02-15T00:53:49;16.02;;;7.75;;
35634;SDS011;21757;43.610;1.440;2023-02-15T00:56:15;15.43;;;7.00;;
35634;SDS011;21757;43.610;1.440;2023-02-15T00:58:41;13.90;;;7.65;;
35634;SDS011;21757;43.610;1.440;2023-02-15T01:01:08;16.50;;;7.63;;
35634;SDS011;21757;43.610;1.440;2023-02-15T01:03:35;15.32;;;7.57;;
35634;SDS011;21757;43.610;1.440;2023-02-15T01:06:02;14.43;;;7.90;;
35634;SDS011;21757;43.610;1.440;2023-02-15T01:08:29;13.20;;;7.63;;
35634;SDS011;21757;43.610;1.440;2023-02-15T01:10:55;13.18;;;7.63;;
35634;SDS011;21757;43.610;1.440;2023-02-15T01:13:21;16.58;;;8.13;;
35634;SDS011;21757;43.610;1.440;2023-02-15T01:15:53;16.50;;;8.30;;
35634;SDS011;21757;43.610;1.440;2023-02-15T01:18:20;14.18;;;7.97;;
35634;SDS011;21757;43.610;1.440;2023-02-15T01:20:46;14.15;;;8.20;;
35634;SDS011;21757;43.610;1.440;2023-02-15T01:23:12;14.35;;;8.10;;
35634;SDS011;21757;43.610;1.440;2023-02-15T01:25:38;17.00;;;8.80;;
35634;SDS011;21757;43.610;1.440;2023-02-15T01:28:04;16.90;;;8.52;;
35634;SDS011;21757;43.610;1.440;2023-02-15T01:30:30;13.07;;;8.02;;
35634;SDS011;21757;43.610;1.440;2023-02-15T01:32:56;15.38;;;8.07;;
35634;SDS011;21757;43.610;1.440;2023-02-15T01:35:22;13.93;;;9.00;;
35634;SDS011;21757;43.610;1.440;2023-02-15T01:37:48;18.38;;;8.75;;
35634;SDS011;21757;43.610;1.440;2023-02-15T01:40:15;16.23;;;9.13;;
35634;SDS011;21757;43.610;1.440;2023-02-15T01:42:42;19.73;;;8.40;;
35634;SDS011;21757;43.610;1.440;2023-02-15T01:45:29;16.23;;;8.45;;
35634;SDS011;21757;43.610;1.440;2023-02-15T01:48:03;14.65;;;8.05;;
35634;SDS011;21757;43.610;1.440;2023-02-15T01:50:36;13.88;;;8.43;;
35634;SDS011;21757;43.610;1.440;2023-02-15T01:53:14;19.73;;;10.25;;
35634;SDS011;21757;43.610;1.440;2023-02-15T01:55:45;18.00;;;9.43;;
35634;SDS011;21757;43.610;1.440;2023-02-15T01:58:14;17.02;;;8.68;;
35634;SDS011;21757;43.610;1.440;2023-02-15T02:00:40;21.42;;;10.13;;
35634;SDS011;21757;43.610;1.440;2023-02-15T02:03:07;16.02;;;8.52;;
35634;SDS011;21757;43.610;1.440;2023-02-15T02:05:32;16.80;;;8.95;;
35634;SDS011;21757;43.610;1.440;2023-02-15T02:07:59;19.65;;;9.27;;
35634;SDS011;21757;43.610;1.440;2023-02-15T02:10:26;15.90;;;8.52;;
35634;SDS011;21757;43.610;1.440;2023-02-15T02:12:54;16.38;;;9.25;;
35634;SDS011;21757;43.610;1.440;2023-02-15T02:15:46;18.42;;;8.82;;
35634;SDS011;21757;43.610;1.440;2023-02-15T02:18:20;18.58;;;9.57;;
35634;SDS011;21757;43.610;1.440;2023-02-15T02:34:54;16.02;;;9.25;;
35634;SDS011;21757;43.610;1.440;2023-02-15T02:40:03;19.55;;;10.40;;
35634;SDS011;21757;43.610;1.440;2023-02-15T02:45:15;22.45;;;10.40;;
35634;SDS011;21757;43.610;1.440;2023-02-15T02:47:54;17.13;;;9.25;;
35634;SDS011;21757;43.610;1.440;2023-02-15T02:50:25;19.17;;;10.25;;
35634;SDS011;21757;43.610;1.440;2023-02-15T02:52:54;22.08;;;10.45;;
35634;SDS011;21757;43.610;1.440;2023-02-15T02:57:59;18.10;;;9.85;;
35634;SDS011;21757;43.610;1.440;2023-02-15T03:00:35;18.98;;;9.85;;
35634;SDS011;21757;43.610;1.440;2023-02-15T03:03:09;22.05;;;10.73;;
35634;SDS011;21757;43.610;1.440;2023-02-15T03:05:50;17.23;;;10.63;;
35634;SDS011;21757;43.610;1.440;2023-02-15T03:08:23;18.98;;;10.10;;
35634;SDS011;21757;43.610;1.440;2023-02-15T03:10:55;19.30;;;10.85;;
35634;SDS011;21757;43.610;1.440;2023-02-15T03:13:24;25.92;;;11.00;;
35634;SDS011;21757;43.610;1.440;2023-02-15T03:15:51;16.27;;;10.57;;
35634;SDS011;21757;43.610;1.440;2023-02-15T03:18:39;23.77;;;11.20;;
35634;SDS011;21757;43.610;1.440;2023-02-15T03:21:19;24.98;;;11.65;;
35634;SDS011;21757;43.610;1.440;2023-02-15T03:23:54;20.65;;;11.40;;
35634;SDS011;21757;43.610;1.440;2023-02-15T03:26:26;18.70;;;11.18;;
35634;SDS011;21757;43.610;1.440;2023-02-15T03:28:53;16.65;;;10.60;;
35634;SDS011;21757;43.610;1.440;2023-02-15T03:31:21;20.95;;;10.52;;
35634;SDS011;21757;43.610;1.440;2023-02-15T03:33:58;19.90;;;11.45;;
35634;SDS011;21757;43.610;1.440;2023-02-15T03:44:31;22.38;;;11.32;;
35634;SDS011;21757;43.610;1.440;2023-02-15T03:47:04;22.33;;;11.63;;
35634;SDS011;21757;43.610;1.440;2023-02-15T03:50:17;23.70;;;12.23;;
35634;SDS011;21757;43.610;1.440;2023-02-15T03:52:28;21.77;;;11.32;;
35634;SDS011;21757;43.610;1.440;2023-02-15T03:54:56;23.00;;;11.77;;
35634;SDS011;21757;43.610;1.440;2023-02-15T03:57:26;21.67;;;12.05;;
35634;SDS011;21757;43.610;1.440;2023-02-15T04:00:19;24.48;;;12.38;;
35634;SDS011;21757;43.610;1.440;2023-02-15T04:03:17;22.20;;;12.05;;
35634;SDS011;21757;43.610;1.440;2023-02-15T04:05:47;23.30;;;12.70;;
35634;SDS011;21757;43.610;1.440;2023-02-15T04:08:13;20.50;;;11.90;;
35634;SDS011;21757;43.610;1.440;2023-02-15T04:10:39;21.27;;;11.90;;
35634;SDS011;21757;43.610;1.440;2023-02-15T04:13:23;19.80;;;11.85;;
35634;SDS011;21757;43.610;1.440;2023-02-15T04:15:55;23.95;;;13.02;;
35634;SDS011;21757;43.610;1.440;2023-02-15T04:21:14;19.65;;;12.73;;
35634;SDS011;21757;43.610;1.440;2023-02-15T04:23:58;21.65;;;13.48;;
35634;SDS011;21757;43.610;1.440;2023-02-15T04:26:42;20.42;;;11.63;;
35634;SDS011;21757;43.610;1.440;2023-02-15T04:29:08;18.98;;;12.48;;
35634;SDS011;21757;43.610;1.440;2023-02-15T04:31:34;36.42;;;14.38;;
35634;SDS011;21757;43.610;1.440;2023-02-15T04:33:59;23.13;;;13.93;;
35634;SDS011;21757;43.610;1.440;2023-02-15T04:36:25;27.05;;;14.35;;
35634;SDS011;21757;43.610;1.440;2023-02-15T04:38:51;20.35;;;12.90;;
35634;SDS011;21757;43.610;1.440;2023-02-15T04:41:16;18.05;;;12.73;;
35634;SDS011;21757;43.610;1.440;2023-02-15T04:43:42;19.88;;;11.93;;
35634;SDS011;21757;43.610;1.440;2023-02-15T04:46:08;21.15;;;12.75;;
35634;SDS011;21757;43.610;1.440;2023-02-15T04:48:34;20.80;;;12.35;;
35634;SDS011;21757;43.610;1.440;2023-02-15T04:50:59;17.17;;;11.85;;
35634;SDS011;21757;43.610;1.440;2023-02-15T04:53:31;19.38;;;11.73;;
35634;SDS011;21757;43.610;1.440;2023-02-15T04:55:57;17.73;;;11.40;;
35634;SDS011;21757;43.610;1.440;2023-02-15T04:58:22;14.55;;;11.75;;
35634;SDS011;21757;43.610;1.440;2023-02-15T05:00:48;18.13;;;12.07;;
35634;SDS011;21757;43.610;1.440;2023-02-15T05:03:14;16.98;;;12.35;;
35634;SDS011;21757;43.610;1.440;2023-02-15T05:05:39;18.77;;;12.05;;
35634;SDS011;21757;43.610;1.440;2023-02-15T05:08:05;19.08;;;11.73;;
35634;SDS011;21757;43.610;1.440;2023-02-15T05:10:31;16.98;;;12.10;;
35634;SDS011;21757;43.610;1.440;2023-02-15T05:12:56;17.10;;;12.52;;
35634;SDS011;21757;43.610;1.440;2023-02-15T05:15:22;16.40;;;11.55;;
35634;SDS011;21757;43.610;1.440;2023-02-15T05:17:48;17.35;;;11.77;;
35634;SDS011;21757;43.610;1.440;2023-02-15T05:20:14;17.08;;;11.35;;
35634;SDS011;21757;43.610;1.440;2023-02-15T05:22:40;20.20;;;12.15;;
35634;SDS011;21757;43.610;1.440;2023-02-15T05:25:06;17.58;;;11.80;;
35634;SDS011;21757;43.610;1.440;2023-02-15T05:27:51;16.02;;;10.77;;
35634;SDS011;21757;43.610;1.440;2023-02-15T05:30:35;16.17;;;11.00;;
35634;SDS011;21757;43.610;1.440;2023-02-15T05:33:01;19.27;;;11.38;;
35634;SDS011;21757;43.610;1.440;2023-02-15T05:35:27;16.80;;;11.27;;
35634;SDS011;21757;43.610;1.440;2023-02-15T05:37:52;15.50;;;10.77;;
35634;SDS011;21757;43.610;1.440;2023-02-15T05:40:18;20.30;;;10.60;;
35634;SDS011;21757;43.610;1.440;2023-02-15T05:42:44;17.42;;;10.52;;
35634;SDS011;21757;43.610;1.440;2023-02-15T05:45:10;19.95;;;10.82;;
35634;SDS011;21757;43.610;1.440;2023-02-15T05:47:35;21.15;;;11.27;;
35634;SDS011;21757;43.610;1.440;2023-02-15T05:50:01;15.07;;;10.60;;
35634;SDS011;21757;43.610;1.440;2023-02-15T05:52:27;18.08;;;10.50;;
35634;SDS011;21757;43.610;1.440;2023-02-15T05:54:53;15.52;;;10.40;;
35634;SDS011;21757;43.610;1.440;2023-02-15T05:57:19;13.93;;;10.25;;
35634;SDS011;21757;43.610;1.440;2023-02-15T05:59:44;18.70;;;11.88;;
35634;SDS011;21757;43.610;1.440;2023-02-15T06:02:10;15.27;;;10.48;;
35634;SDS011;21757;43.610;1.440;2023-02-15T06:04:36;17.88;;;11.65;;
35634;SDS011;21757;43.610;1.440;2023-02-15T06:07:02;19.08;;;12.25;;
35634;SDS011;21757;43.610;1.440;2023-02-15T06:09:27;24.05;;;13.32;;
35634;SDS011;21757;43.610;1.440;2023-02-15T06:11:53;22.25;;;13.57;;
35634;SDS011;21757;43.610;1.440;2023-02-15T06:14:18;23.40;;;13.40;;
35634;SDS011;21757;43.610;1.440;2023-02-15T06:16:44;26.40;;;13.88;;
35634;SDS011;21757;43.610;1.440;2023-02-15T06:19:10;22.95;;;14.25;;
35634;SDS011;21757;43.610;1.440;2023-02-15T06:21:35;24.55;;;13.48;;
35634;SDS011;21757;43.610;1.440;2023-02-15T06:24:01;25.67;;;13.40;;
35634;SDS011;21757;43.610;1.440;2023-02-15T06:26:27;23.70;;;12.55;;
35634;SDS011;21757;43.610;1.440;2023-02-15T06:28:53;25.50;;;13.73;;
35634;SDS011;21757;43.610;1.440;2023-02-15T06:31:19;22.33;;;12.93;;
35634;SDS011;21757;43.610;1.440;2023-02-15T06:33:44;20.80;;;13.07;;
35634;SDS011;21757;43.610;1.440;2023-02-15T06:36:10;25.65;;;13.55;;
35634;SDS011;21757;43.610;1.440;2023-02-15T06:38:37;22.35;;;13.15;;
35634;SDS011;21757;43.610;1.440;2023-02-15T06:41:03;20.83;;;12.32;;
35634;SDS011;21757;43.610;1.440;2023-02-15T06:43:29;22.05;;;13.20;;
35634;SDS011;21757;43.610;1.440;2023-02-15T06:45:54;19.60;;;12.98;;
35634;SDS011;21757;43.610;1.440;2023-02-15T06:48:20;22.02;;;12.75;;
35634;SDS011;21757;43.610;1.440;2023-02-15T06:50:45;19.67;;;12.45;;
35634;SDS011;21757;43.610;1.440;2023-02-15T06:53:11;24.67;;;12.20;;
35634;SDS011;21757;43.610;1.440;2023-02-15T06:55:37;20.67;;;13.07;;
35634;SDS011;21757;43.610;1.440;2023-02-15T06:58:02;23.65;;;12.25;;
35634;SDS011;21757;43.610;1.440;2023-02-15T07:00:28;22.20;;;12.38;;
35634;SDS011;21757;43.610;1.440;2023-02-15T07:02:54;22.05;;;12.35;;
35634;SDS011;21757;43.610;1.440;2023-02-15T07:05:21;26.00;;;12.85;;
35634;SDS011;21757;43.610;1.440;2023-02-15T07:07:47;23.98;;;13.65;;
35634;SDS011;21757;43.610;1.440;2023-02-15T07:10:13;21.42;;;12.35;;
35634;SDS011;21757;43.610;1.440;2023-02-15T07:12:39;19.58;;;12.73;;
35634;SDS011;21757;43.610;1.440;2023-02-15T07:15:08;19.20;;;11.88;;
35634;SDS011;21757;43.610;1.440;2023-02-15T07:17:35;22.90;;;12.13;;
35634;SDS011;21757;43.610;1.440;2023-02-15T07:20:03;28.13;;;12.23;;
35634;SDS011;21757;43.610;1.440;2023-02-15T07:22:30;21.52;;;11.73;;
35634;SDS011;21757;43.610;1.440;2023-02-15T07:24:55;21.27;;;12.27;;
35634;SDS011;21757;43.610;1.440;2023-02-15T07:27:22;19.60;;;12.07;;
35634;SDS011;21757;43.610;1.440;2023-02-15T07:29:47;18.50;;;12.05;;
35634;SDS011;21757;43.610;1.440;2023-02-15T07:32:13;18.30;;;12.20;;
35634;SDS011;21757;43.610;1.440;2023-02-15T07:34:39;20.45;;;11.45;;
35634;SDS011;21757;43.610;1.440;2023-02-15T07:37:05;22.83;;;11.80;;
35634;SDS011;21757;43.610;1.440;2023-02-15T07:39:31;21.63;;;10.95;;
35634;SDS011;21757;43.610;1.440;2023-02-15T07:41:57;23.10;;;11.20;;
35634;SDS011;21757;43.610;1.440;2023-02-15T07:44:24;22.88;;;11.25;;
35634;SDS011;21757;43.610;1.440;2023-02-15T07:46:50;18.00;;;10.77;;
35634;SDS011;21757;43.610;1.440;2023-02-15T07:49:15;29.15;;;11.93;;
35634;SDS011;21757;43.610;1.440;2023-02-15T07:51:41;23.45;;;12.73;;
35634;SDS011;21757;43.610;1.440;2023-02-15T07:54:07;23.35;;;11.82;;
35634;SDS011;21757;43.610;1.440;2023-02-15T07:56:32;24.13;;;14.10;;
35634;SDS011;21757;43.610;1.440;2023-02-15T07:58:58;22.48;;;11.73;;
35634;SDS011;21757;43.610;1.440;2023-02-15T08:01:29;20.40;;;11.02;;
35634;SDS011;21757;43.610;1.440;2023-02-15T08:03:57;19.83;;;11.05;;
35634;SDS011;21757;43.610;1.440;2023-02-15T08:06:24;16.95;;;9.63;;
35634;SDS011;21757;43.610;1.440;2023-02-15T08:08:51;23.20;;;11.40;;
35634;SDS011;21757;43.610;1.440;2023-02-15T08:11:22;16.75;;;11.00;;
35634;SDS011;21757;43.610;1.440;2023-02-15T08:13:58;18.13;;;9.63;;
35634;SDS011;21757;43.610;1.440;2023-02-15T08:16:52;19.23;;;10.57;;
35634;SDS011;21757;43.610;1.440;2023-02-15T08:19:27;21.60;;;10.60;;
35634;SDS011;21757;43.610;1.440;2023-02-15T08:21:54;17.10;;;9.60;;
35634;SDS011;21757;43.610;1.440;2023-02-15T08:24:25;17.25;;;9.30;;
35634;SDS011;21757;43.610;1.440;2023-02-15T08:26:55;18.02;;;10.02;;
35634;SDS011;21757;43.610;1.440;2023-02-15T08:29:22;18.20;;;9.45;;
35634;SDS011;21757;43.610;1.440;2023-02-15T08:31:55;22.88;;;10.20;;
35634;SDS011;21757;43.610;1.440;2023-02-15T08:34:24;14.30;;;8.75;;
35634;SDS011;21757;43.610;1.440;2023-02-15T08:36:50;16.35;;;8.43;;
35634;SDS011;21757;43.610;1.440;2023-02-15T08:39:16;19.58;;;9.52;;
35634;SDS011;21757;43.610;1.440;2023-02-15T08:41:42;16.35;;;9.18;;
35634;SDS011;21757;43.610;1.440;2023-02-15T08:44:09;19.58;;;8.88;;
35634;SDS011;21757;43.610;1.440;2023-02-15T08:46:39;25.15;;;10.10;;
35634;SDS011;21757;43.610;1.440;2023-02-15T08:49:07;19.85;;;9.82;;
35634;SDS011;21757;43.610;1.440;2023-02-15T08:51:34;18.85;;;9.75;;
35634;SDS011;21757;43.610;1.440;2023-02-15T08:54:03;20.55;;;9.10;;
35634;SDS011;21757;43.610;1.440;2023-02-15T08:56:34;15.75;;;10.45;;
35634;SDS011;21757;43.610;1.440;2023-02-15T08:59:03;17.90;;;8.73;;
35634;SDS011;21757;43.610;1.440;2023-02-15T09:01:31;18.85;;;8.57;;
35634;SDS011;21757;43.610;1.440;2023-02-15T09:03:59;14.07;;;7.88;;
35634;SDS011;21757;43.610;1.440;2023-02-15T09:06:30;19.40;;;10.30;;
35634;SDS011;21757;43.610;1.440;2023-02-15T09:08:56;15.35;;;8.80;;
35634;SDS011;21757;43.610;1.440;2023-02-15T09:11:23;15.80;;;7.72;;
35634;SDS011;21757;43.610;1.440;2023-02-15T09:16:27;15.63;;;7.97;;
35634;SDS011;21757;43.610;1.440;2023-02-15T09:18:54;14.05;;;7.82;;
35634;SDS011;21757;43.610;1.440;2023-02-15T09:21:22;16.42;;;7.72;;
35634;SDS011;21757;43.610;1.440;2023-02-15T09:23:50;19.33;;;8.10;;
35634;SDS011;21757;43.610;1.440;2023-02-15T09:26:21;13.90;;;8.55;;
35634;SDS011;21757;43.610;1.440;2023-02-15T09:28:48;15.93;;;7.93;;
35634;SDS011;21757;43.610;1.440;2023-02-15T09:31:18;13.38;;;8.60;;
35634;SDS011;21757;43.610;1.440;2023-02-15T09:33:46;18.30;;;8.57;;
35634;SDS011;21757;43.610;1.440;2023-02-15T09:36:22;17.48;;;8.07;;
35634;SDS011;21757;43.610;1.440;2023-02-15T09:38:57;14.98;;;7.55;;
35634;SDS011;21757;43.610;1.440;2023-02-15T09:57:53;14.27;;;7.05;;
35634;SDS011;21757;43.610;1.440;2023-02-15T10:05:55;12.20;;;6.80;;
35634;SDS011;21757;43.610;1.440;2023-02-15T10:08:48;17.25;;;7.22;;
35634;SDS011;21757;43.610;1.440;2023-02-15T10:25:51;12.23;;;6.45;;
35634;SDS011;21757;43.610;1.440;2023-02-15T10:28:45;16.75;;;7.53;;
35634;SDS011;21757;43.610;1.440;2023-02-15T10:45:19;12.98;;;6.32;;
35634;SDS011;21757;43.610;1.440;2023-02-15T10:47:59;15.73;;;7.65;;
35634;SDS011;21757;43.610;1.440;2023-02-15T10:50:53;9.35;;;5.40;;
35634;SDS011;21757;43.610;1.440;2023-02-15T10:53:26;13.27;;;6.13;;
35634;SDS011;21757;43.610;1.440;2023-02-15T11:07:52;11.13;;;5.93;;
35634;SDS011;21757;43.610;1.440;2023-02-15T11:12:51;9.52;;;5.75;;
35634;SDS011;21757;43.610;1.440;2023-02-15T11:17:52;15.27;;;6.65;;
35634;SDS011;21757;43.610;1.440;2023-02-15T11:20:24;11.05;;;5.45;;
35634;SDS011;21757;43.610;1.440;2023-02-15T11:22:51;9.00;;;5.22;;
35634;SDS011;21757;43.610;1.440;2023-02-15T11:25:25;9.23;;;5.03;;
35634;SDS011;21757;43.610;1.440;2023-02-15T11:27:55;15.02;;;6.68;;
35634;SDS011;21757;43.610;1.440;2023-02-15T11:30:22;13.48;;;6.50;;
35634;SDS011;21757;43.610;1.440;2023-02-15T11:32:55;11.75;;;5.13;;
35634;SDS011;21757;43.610;1.440;2023-02-15T11:35:38;10.82;;;5.18;;
35634;SDS011;21757;43.610;1.440;2023-02-15T11:38:21;19.63;;;10.73;;
35634;SDS011;21757;43.610;1.440;2023-02-15T11:40:52;16.55;;;6.20;;
35634;SDS011;21757;43.610;1.440;2023-02-15T11:43:26;9.23;;;5.68;;
35634;SDS011;21757;43.610;1.440;2023-02-15T11:45:54;6.72;;;4.40;;
35634;SDS011;21757;43.610;1.440;2023-02-15T11:48:19;8.77;;;5.43;;
35634;SDS011;21757;43.610;1.440;2023-02-15T11:50:45;8.07;;;5.00;;
35634;SDS011;21757;43.610;1.440;2023-02-15T11:53:12;12.25;;;6.00;;
35634;SDS011;21757;43.610;1.440;2023-02-15T11:55:43;9.07;;;5.15;;
35634;SDS011;21757;43.610;1.440;2023-02-15T12:01:15;10.75;;;4.85;;
35634;SDS011;21757;43.610;1.440;2023-02-15T12:06:21;10.27;;;4.85;;
35634;SDS011;21757;43.610;1.440;2023-02-15T12:09:05;10.77;;;5.50;;
35634;SDS011;21757;43.610;1.440;2023-02-15T12:11:36;20.88;;;11.48;;
35634;SDS011;21757;43.610;1.440;2023-02-15T12:14:04;24.80;;;13.45;;
35634;SDS011;21757;43.610;1.440;2023-02-15T12:16:34;11.45;;;5.05;;
35634;SDS011;21757;43.610;1.440;2023-02-15T12:19:32;10.88;;;5.35;;
35634;SDS011;21757;43.610;1.440;2023-02-15T12:22:03;11.70;;;5.47;;
35634;SDS011;21757;43.610;1.440;2023-02-15T12:24:32;9.88;;;4.72;;
35634;SDS011;21757;43.610;1.440;2023-02-15T12:35:46;8.98;;;4.05;;
35634;SDS011;21757;43.610;1.440;2023-02-15T12:38:23;12.13;;;5.53;;
35634;SDS011;21757;43.610;1.440;2023-02-15T12:41:00;8.60;;;4.35;;
35634;SDS011;21757;43.610;1.440;2023-02-15T12:43:44;7.78;;;4.07;;
35634;SDS011;21757;43.610;1.440;2023-02-15T12:46:23;14.70;;;5.03;;
35634;SDS011;21757;43.610;1.440;2023-02-15T12:49:24;11.68;;;4.70;;
35634;SDS011;21757;43.610;1.440;2023-02-15T12:51:54;7.03;;;3.88;;
35634;SDS011;21757;43.610;1.440;2023-02-15T12:56:50;10.25;;;5.10;;
35634;SDS011;21757;43.610;1.440;2023-02-15T12:59:16;9.13;;;5.43;;
35634;SDS011;21757;43.610;1.440;2023-02-15T13:01:47;7.72;;;4.63;;
35634;SDS011;21757;43.610;1.440;2023-02-15T13:04:24;7.15;;;3.92;;
35634;SDS011;21757;43.610;1.440;2023-02-15T13:06:58;6.25;;;3.60;;
35634;SDS011;21757;43.610;1.440;2023-02-15T13:11:56;7.47;;;4.60;;
35634;SDS011;21757;43.610;1.440;2023-02-15T13:14:34;9.13;;;4.88;;
35634;SDS011;21757;43.610;1.440;2023-02-15T13:17:02;8.30;;;4.90;;
35634;SDS011;21757;43.610;1.440;2023-02-15T13:19:31;7.60;;;4.30;;
35634;SDS011;21757;43.610;1.440;2023-02-15T13:22:05;6.85;;;3.88;;
35634;SDS011;21757;43.610;1.440;2023-02-15T13:24:39;11.10;;;4.00;;
35634;SDS011;21757;43.610;1.440;2023-02-15T13:27:10;10.90;;;4.15;;
35634;SDS011;21757;43.610;1.440;2023-02-15T13:29:41;9.70;;;4.10;;
35634;SDS011;21757;43.610;1.440;2023-02-15T13:34:58;9.80;;;4.13;;
35634;SDS011;21757;43.610;1.440;2023-02-15T13:40:37;12.67;;;4.00;;
35634;SDS011;21757;43.610;1.440;2023-02-15T13:54:26;11.40;;;4.45;;
35634;SDS011;21757;43.610;1.440;2023-02-15T14:13:49;8.63;;;4.22;;
35634;SDS011;21757;43.610;1.440;2023-02-15T14:21:50;7.90;;;4.32;;
35634;SDS011;21757;43.610;1.440;2023-02-15T14:24:36;6.65;;;3.58;;
35634;SDS011;21757;43.610;1.440;2023-02-15T14:30:03;11.27;;;3.58;;
35634;SDS011;21757;43.610;1.440;2023-02-15T14:32:44;8.23;;;3.78;;
35634;SDS011;21757;43.610;1.440;2023-02-15T14:35:14;6.13;;;3.25;;
35634;SDS011;21757;43.610;1.440;2023-02-15T14:43:32;7.95;;;3.22;;
35634;SDS011;21757;43.610;1.440;2023-02-15T14:48:56;5.18;;;3.20;;
35634;SDS011;21757;43.610;1.440;2023-02-15T15:02:15;5.88;;;3.58;;
35634;SDS011;21757;43.610;1.440;2023-02-15T15:12:48;6.45;;;3.92;;
35634;SDS011;21757;43.610;1.440;2023-02-15T15:17:54;7.97;;;3.70;;
35634;SDS011;21757;43.610;1.440;2023-02-15T15:25:45;5.47;;;3.90;;
35634;SDS011;21757;43.610;1.440;2023-02-15T15:28:57;8.90;;;3.90;;
35634;SDS011;21757;43.610;1.440;2023-02-15T15:30:59;7.05;;;4.90;;
35634;SDS011;21757;43.610;1.440;2023-02-15T15:51:10;8.70;;;3.70;;
35634;SDS011;21757;43.610;1.440;2023-02-15T15:53:56;9.07;;;4.13;;
35634;SDS011;21757;43.610;1.440;2023-02-15T15:56:40;7.80;;;4.60;;
35634;SDS011;21757;43.610;1.440;2023-02-15T15:59:21;5.43;;;3.67;;
35634;SDS011;21757;43.610;1.440;2023-02-15T16:01:49;8.50;;;3.50;;
35634;SDS011;21757;43.610;1.440;2023-02-15T16:04:48;8.30;;;3.58;;
35634;SDS011;21757;43.610;1.440;2023-02-15T16:09:39;5.07;;;3.28;;
35634;SDS011;21757;43.610;1.440;2023-02-15T16:12:13;6.43;;;4.10;;
35634;SDS011;21757;43.610;1.440;2023-02-15T16:14:42;8.82;;;4.75;;
35634;SDS011;21757;43.610;1.440;2023-02-15T16:17:21;9.75;;;3.92;;
35634;SDS011;21757;43.610;1.440;2023-02-15T16:19:53;9.30;;;5.32;;
35634;SDS011;21757;43.610;1.440;2023-02-15T16:22:25;10.35;;;4.78;;
35634;SDS011;21757;43.610;1.440;2023-02-15T16:28:05;9.95;;;5.60;;
35634;SDS011;21757;43.610;1.440;2023-02-15T16:30:33;8.57;;;4.75;;
35634;SDS011;21757;43.610;1.440;2023-02-15T16:33:13;9.85;;;4.70;;
35634;SDS011;21757;43.610;1.440;2023-02-15T16:35:57;8.77;;;4.72;;
35634;SDS011;21757;43.610;1.440;2023-02-15T16:41:09;9.20;;;5.03;;
35634;SDS011;21757;43.610;1.440;2023-02-15T16:43:38;9.95;;;4.93;;
35634;SDS011;21757;43.610;1.440;2023-02-15T16:46:11;8.65;;;5.80;;
35634;SDS011;21757;43.610;1.440;2023-02-15T16:48:45;10.32;;;5.43;;
35634;SDS011;21757;43.610;1.440;2023-02-15T16:51:53;11.48;;;5.15;;
35634;SDS011;21757;43.610;1.440;2023-02-15T16:54:14;6.65;;;5.05;;
35634;SDS011;21757;43.610;1.440;2023-02-15T16:56:44;10.45;;;5.28;;
35634;SDS011;21757;43.610;1.440;2023-02-15T17:02:18;13.05;;;6.13;;
35634;SDS011;21757;43.610;1.440;2023-02-15T17:04:59;7.90;;;4.82;;
35634;SDS011;21757;43.610;1.440;2023-02-15T17:07:32;11.30;;;5.43;;
35634;SDS011;21757;43.610;1.440;2023-02-15T17:09:58;10.48;;;5.50;;
35634;SDS011;21757;43.610;1.440;2023-02-15T17:18:00;10.30;;;6.70;;
35634;SDS011;21757;43.610;1.440;2023-02-15T17:20:31;16.30;;;7.90;;
35634;SDS011;21757;43.610;1.440;2023-02-15T17:22:58;11.43;;;6.25;;
35634;SDS011;21757;43.610;1.440;2023-02-15T17:25:37;13.05;;;8.45;;
35634;SDS011;21757;43.610;1.440;2023-02-15T17:28:05;10.15;;;5.65;;
35634;SDS011;21757;43.610;1.440;2023-02-15T17:30:40;10.98;;;5.75;;
35634;SDS011;21757;43.610;1.440;2023-02-15T17:33:15;11.80;;;6.80;;
35634;SDS011;21757;43.610;1.440;2023-02-15T17:41:22;21.63;;;8.18;;
35634;SDS011;21757;43.610;1.440;2023-02-15T17:43:52;13.95;;;6.85;;
35634;SDS011;21757;43.610;1.440;2023-02-15T17:46:18;17.33;;;10.68;;
35634;SDS011;21757;43.610;1.440;2023-02-15T17:48:47;13.20;;;7.72;;
35634;SDS011;21757;43.610;1.440;2023-02-15T17:51:15;12.48;;;7.22;;
35634;SDS011;21757;43.610;1.440;2023-02-15T17:53:42;15.77;;;9.07;;
35634;SDS011;21757;43.610;1.440;2023-02-15T17:56:34;12.05;;;7.50;;
35634;SDS011;21757;43.610;1.440;2023-02-15T17:59:01;9.75;;;7.45;;
35634;SDS011;21757;43.610;1.440;2023-02-15T18:01:42;11.23;;;8.13;;
35634;SDS011;21757;43.610;1.440;2023-02-15T18:04:31;11.93;;;7.95;;
35634;SDS011;21757;43.610;1.440;2023-02-15T18:07:18;13.30;;;8.20;;
35634;SDS011;21757;43.610;1.440;2023-02-15T18:10:05;16.15;;;7.80;;
35634;SDS011;21757;43.610;1.440;2023-02-15T18:12:59;16.63;;;8.65;;
35634;SDS011;21757;43.610;1.440;2023-02-15T18:15:25;11.50;;;7.80;;
35634;SDS011;21757;43.610;1.440;2023-02-15T18:17:51;16.08;;;8.35;;
35634;SDS011;21757;43.610;1.440;2023-02-15T18:22:45;11.63;;;7.65;;
35634;SDS011;21757;43.610;1.440;2023-02-15T18:25:15;13.43;;;8.35;;
35634;SDS011;21757;43.610;1.440;2023-02-15T18:27:42;17.27;;;8.43;;
35634;SDS011;21757;43.610;1.440;2023-02-15T18:30:12;19.52;;;10.68;;
35634;SDS011;21757;43.610;1.440;2023-02-15T18:32:43;14.10;;;8.90;;
35634;SDS011;21757;43.610;1.440;2023-02-15T18:35:14;19.48;;;9.70;;
35634;SDS011;21757;43.610;1.440;2023-02-15T18:37:43;14.98;;;8.57;;
35634;SDS011;21757;43.610;1.440;2023-02-15T18:40:17;13.07;;;7.72;;
35634;SDS011;21757;43.610;1.440;2023-02-15T18:42:49;15.35;;;7.75;;
35634;SDS011;21757;43.610;1.440;2023-02-15T18:47:43;12.55;;;8.40;;
35634;SDS011;21757;43.610;1.440;2023-02-15T18:50:10;15.15;;;8.48;;
35634;SDS011;21757;43.610;1.440;2023-02-15T18:52:40;13.23;;;8.23;;
35634;SDS011;21757;43.610;1.440;2023-02-15T18:55:27;15.10;;;9.27;;